sensor_id;sensor_type;location;lat;lon;timestamp;P1;durP1;ratioP1;P2;durP2;ratioP2
2434;SDS011;1228;51.022;6.764;2023-02-13T00:02:01;10.77;;;9.73;;
2434;SDS011;1228;51.022;6.764;2023-02-13T00:04:26;12.97;;;8.87;;
2434;SDS011;1228;51.022;6.764;2023-02-13T00:06:52;10.00;;;9.00;;
2434;SDS011;1228;51.022;6.764;2023-02-13T00:09:18;11.90;;;8.83;;
2434;SDS011;1228;51.022;6.764;2023-02-13T00:11:43;9.80;;;8.90;;
2434;SDS011;1228;51.022;6.764;2023-02-13T00:14:09;12.93;;;9.17;;
2434;SDS011;1228;51.022;6.764;2023-02-13T00:16:34;12.33;;;11.13;;
2434;SDS011;1228;51.022;6.764;2023-02-13T00:19:00;11.60;;;9.97;;
2434;SDS011;1228;51.022;6.764;2023-02-13T00:21:25;11.43;;;10.40;;
2434;SDS011;1228;51.022;6.764;2023-02-13T00:23:51;10.77;;;9.30;;
2434;SDS011;1228;51.022;6.764;2023-02-13T00:26:17;12.43;;;10.00;;
2434;SDS011;1228;51.022;6.764;2023-02-13T00:28:43;11.60;;;9.33;;
2434;SDS011;1228;51.022;6.764;2023-02-13T00:31:10;10.40;;;9.30;;
2434;SDS011;1228;51.022;6.764;2023-02-13T00:33:40;11.07;;;9.80;;
2434;SDS011;1228;51.022;6.764;2023-02-13T00:36:07;11.80;;;10.30;;
2434;SDS011;1228;51.022;6.764;2023-02-13T00:38:44;13.83;;;9.77;;
2434;SDS011;1228;51.022;6.764;2023-02-13T00:41:10;10.87;;;9.63;;
2434;SDS011;1228;51.022;6.764;2023-02-13T00:43:36;10.83;;;9.73;;
2434;SDS011;1228;51.022;6.764;2023-02-13T00:46:02;12.73;;;10.03;;
2434;SDS011;1228;51.022;6.764;2023-02-13T00:48:29;10.77;;;9.40;;
2434;SDS011;1228;51.022;6.764;2023-02-13T00:50:56;14.47;;;9.73;;
2434;SDS011;1228;51.022;6.764;2023-02-13T00:53:22;13.90;;;9.37;;
2434;SDS011;1228;51.022;6.764;2023-02-13T00:55:49;11.17;;;9.70;;
2434;SDS011;1228;51.022;6.764;2023-02-13T00:58:15;13.30;;;8.80;;
2434;SDS011;1228;51.022;6.764;2023-02-13T01:00:42;11.43;;;9.80;;
2434;SDS011;1228;51.022;6.764;2023-02-13T01:03:08;15.20;;;10.03;;
2434;SDS011;1228;51.022;6.764;2023-02-13T01:05:34;10.23;;;9.20;;
2434;SDS011;1228;51.022;6.764;2023-02-13T01:08:00;11.23;;;8.70;;
2434;SDS011;1228;51.022;6.764;2023-02-13T01:10:26;13.00;;;10.03;;
2434;SDS011;1228;51.022;6.764;2023-02-13T01:12:52;12.27;;;10.13;;
2434;SDS011;1228;51.022;6.764;2023-02-13T01:15:18;11.30;;;10.20;;
2434;SDS011;1228;51.022;6.764;2023-02-13T01:17:43;10.73;;;9.53;;
2434;SDS011;1228;51.022;6.764;2023-02-13T01:20:10;13.33;;;10.47;;
2434;SDS011;1228;51.022;6.764;2023-02-13T01:22:36;12.87;;;10.23;;
2434;SDS011;1228;51.022;6.764;2023-02-13T01:25:02;10.10;;;9.27;;
2434;SDS011;1228;51.022;6.764;2023-02-13T01:27:28;11.50;;;10.27;;
2434;SDS011;1228;51.022;6.764;2023-02-13T01:29:54;11.30;;;10.17;;
2434;SDS011;1228;51.022;6.764;2023-02-13T01:32:20;11.90;;;9.50;;
2434;SDS011;1228;51.022;6.764;2023-02-13T01:34:46;10.37;;;9.27;;
2434;SDS011;1228;51.022;6.764;2023-02-13T01:37:11;11.57;;;9.13;;
2434;SDS011;1228;51.022;6.764;2023-02-13T01:39:37;11.70;;;9.97;;
2434;SDS011;1228;51.022;6.764;2023-02-13T01:42:03;12.07;;;9.43;;
2434;SDS011;1228;51.022;6.764;2023-02-13T01:44:48;9.67;;;8.97;;
2434;SDS011;1228;51.022;6.764;2023-02-13T01:47:16;10.10;;;9.10;;
2434;SDS011;1228;51.022;6.764;2023-02-13T01:49:47;11.40;;;9.07;;
2434;SDS011;1228;51.022;6.764;2023-02-13T01:52:14;10.80;;;9.70;;
2434;SDS011;1228;51.022;6.764;2023-02-13T01:54:41;10.50;;;9.50;;
2434;SDS011;1228;51.022;6.764;2023-02-13T01:57:12;11.00;;;9.90;;
2434;SDS011;1228;51.022;6.764;2023-02-13T01:59:43;12.90;;;11.27;;
2434;SDS011;1228;51.022;6.764;2023-02-13T02:02:17;11.67;;;10.67;;
2434;SDS011;1228;51.022;6.764;2023-02-13T02:04:44;11.10;;;10.10;;
2434;SDS011;1228;51.022;6.764;2023-02-13T02:07:25;13.60;;;10.93;;
2434;SDS011;1228;51.022;6.764;2023-02-13T02:09:54;10.87;;;9.80;;
2434;SDS011;1228;51.022;6.764;2023-02-13T02:12:24;10.87;;;9.97;;
2434;SDS011;1228;51.022;6.764;2023-02-13T02:14:51;11.53;;;10.30;;
2434;SDS011;1228;51.022;6.764;2023-02-13T02:17:20;12.10;;;10.10;;
2434;SDS011;1228;51.022;6.764;2023-02-13T02:28:38;13.17;;;10.57;;
2434;SDS011;1228;51.022;6.764;2023-02-13T02:34:00;11.90;;;10.77;;
2434;SDS011;1228;51.022;6.764;2023-02-13T02:39:25;13.27;;;11.97;;
2434;SDS011;1228;51.022;6.764;2023-02-13T02:50:50;10.50;;;9.60;;
2434;SDS011;1228;51.022;6.764;2023-02-13T02:53:47;10.67;;;9.70;;
2434;SDS011;1228;51.022;6.764;2023-02-13T02:56:23;10.03;;;9.30;;
2434;SDS011;1228;51.022;6.764;2023-02-13T02:59:12;11.20;;;9.97;;
2434;SDS011;1228;51.022;6.764;2023-02-13T03:02:00;11.10;;;10.00;;
2434;SDS011;1228;51.022;6.764;2023-02-13T03:04:45;11.63;;;10.50;;
2434;SDS011;1228;51.022;6.764;2023-02-13T03:07:33;10.23;;;9.40;;
2434;SDS011;1228;51.022;6.764;2023-02-13T03:10:03;11.30;;;9.07;;
2434;SDS011;1228;51.022;6.764;2023-02-13T03:12:51;10.23;;;9.23;;
2434;SDS011;1228;51.022;6.764;2023-02-13T03:15:52;12.40;;;11.20;;
2434;SDS011;1228;51.022;6.764;2023-02-13T03:18:41;13.77;;;10.50;;
2434;SDS011;1228;51.022;6.764;2023-02-13T03:38:41;11.00;;;9.50;;
2434;SDS011;1228;51.022;6.764;2023-02-13T03:41:37;11.03;;;9.93;;
2434;SDS011;1228;51.022;6.764;2023-02-13T03:46:56;10.47;;;9.47;;
2434;SDS011;1228;51.022;6.764;2023-02-13T03:49:32;11.43;;;10.53;;
2434;SDS011;1228;51.022;6.764;2023-02-13T03:55:24;12.33;;;11.03;;
2434;SDS011;1228;51.022;6.764;2023-02-13T03:58:18;11.97;;;10.97;;
2434;SDS011;1228;51.022;6.764;2023-02-13T04:01:06;11.00;;;10.07;;
2434;SDS011;1228;51.022;6.764;2023-02-13T04:03:39;10.90;;;9.90;;
2434;SDS011;1228;51.022;6.764;2023-02-13T04:06:10;11.77;;;10.73;;
2434;SDS011;1228;51.022;6.764;2023-02-13T04:08:39;12.03;;;10.90;;
2434;SDS011;1228;51.022;6.764;2023-02-13T04:13:34;11.50;;;10.00;;
2434;SDS011;1228;51.022;6.764;2023-02-13T04:16:09;11.00;;;9.90;;
2434;SDS011;1228;51.022;6.764;2023-02-13T04:18:40;11.70;;;10.50;;
2434;SDS011;1228;51.022;6.764;2023-02-13T04:21:07;11.77;;;10.53;;
2434;SDS011;1228;51.022;6.764;2023-02-13T04:23:33;12.83;;;11.70;;
2434;SDS011;1228;51.022;6.764;2023-02-13T04:26:02;11.87;;;9.73;;
2434;SDS011;1228;51.022;6.764;2023-02-13T04:28:33;11.10;;;9.97;;
2434;SDS011;1228;51.022;6.764;2023-02-13T04:30:58;12.57;;;11.53;;
2434;SDS011;1228;51.022;6.764;2023-02-13T04:33:24;12.47;;;11.17;;
2434;SDS011;1228;51.022;6.764;2023-02-13T04:35:49;11.60;;;10.60;;
2434;SDS011;1228;51.022;6.764;2023-02-13T04:38:15;12.33;;;11.13;;
2434;SDS011;1228;51.022;6.764;2023-02-13T04:40:41;10.83;;;9.90;;
2434;SDS011;1228;51.022;6.764;2023-02-13T04:43:06;13.57;;;12.17;;
2434;SDS011;1228;51.022;6.764;2023-02-13T04:45:32;12.90;;;11.43;;
2434;SDS011;1228;51.022;6.764;2023-02-13T04:47:57;13.50;;;11.30;;
2434;SDS011;1228;51.022;6.764;2023-02-13T04:50:23;11.33;;;10.33;;
2434;SDS011;1228;51.022;6.764;2023-02-13T04:52:53;12.27;;;11.20;;
2434;SDS011;1228;51.022;6.764;2023-02-13T04:55:20;12.80;;;11.37;;
2434;SDS011;1228;51.022;6.764;2023-02-13T04:57:53;12.57;;;11.43;;
2434;SDS011;1228;51.022;6.764;2023-02-13T05:00:20;12.13;;;10.97;;
2434;SDS011;1228;51.022;6.764;2023-02-13T05:02:47;12.53;;;10.93;;
2434;SDS011;1228;51.022;6.764;2023-02-13T05:05:12;13.37;;;11.10;;
2434;SDS011;1228;51.022;6.764;2023-02-13T05:07:38;12.10;;;11.07;;
2434;SDS011;1228;51.022;6.764;2023-02-13T05:10:05;12.40;;;11.33;;
2434;SDS011;1228;51.022;6.764;2023-02-13T05:12:31;11.83;;;10.63;;
2434;SDS011;1228;51.022;6.764;2023-02-13T05:14:56;12.33;;;11.13;;
2434;SDS011;1228;51.022;6.764;2023-02-13T05:17:22;11.37;;;10.27;;
2434;SDS011;1228;51.022;6.764;2023-02-13T05:19:47;11.60;;;10.50;;
2434;SDS011;1228;51.022;6.764;2023-02-13T05:22:13;12.80;;;10.63;;
2434;SDS011;1228;51.022;6.764;2023-02-13T05:24:57;12.93;;;11.20;;
2434;SDS011;1228;51.022;6.764;2023-02-13T05:27:23;16.40;;;13.10;;
2434;SDS011;1228;51.022;6.764;2023-02-13T05:29:48;13.53;;;10.60;;
2434;SDS011;1228;51.022;6.764;2023-02-13T05:32:14;15.03;;;10.67;;
2434;SDS011;1228;51.022;6.764;2023-02-13T05:34:39;14.93;;;12.70;;
2434;SDS011;1228;51.022;6.764;2023-02-13T05:37:05;20.70;;;11.30;;
2434;SDS011;1228;51.022;6.764;2023-02-13T05:39:30;19.60;;;13.33;;
2434;SDS011;1228;51.022;6.764;2023-02-13T05:41:56;16.63;;;11.63;;
2434;SDS011;1228;51.022;6.764;2023-02-13T05:44:22;14.43;;;11.27;;
2434;SDS011;1228;51.022;6.764;2023-02-13T05:46:47;16.77;;;13.47;;
2434;SDS011;1228;51.022;6.764;2023-02-13T05:49:13;15.43;;;12.13;;
2434;SDS011;1228;51.022;6.764;2023-02-13T05:51:40;16.57;;;10.40;;
2434;SDS011;1228;51.022;6.764;2023-02-13T05:54:06;17.10;;;12.70;;
2434;SDS011;1228;51.022;6.764;2023-02-13T05:56:32;15.70;;;11.57;;
2434;SDS011;1228;51.022;6.764;2023-02-13T05:58:58;11.73;;;10.20;;
2434;SDS011;1228;51.022;6.764;2023-02-13T06:01:23;14.23;;;10.57;;
2434;SDS011;1228;51.022;6.764;2023-02-13T06:03:49;16.13;;;12.20;;
2434;SDS011;1228;51.022;6.764;2023-02-13T06:06:15;14.60;;;11.27;;
2434;SDS011;1228;51.022;6.764;2023-02-13T06:08:41;13.60;;;12.00;;
2434;SDS011;1228;51.022;6.764;2023-02-13T06:11:07;16.07;;;12.10;;
2434;SDS011;1228;51.022;6.764;2023-02-13T06:13:34;11.10;;;10.03;;
2434;SDS011;1228;51.022;6.764;2023-02-13T06:15:59;13.23;;;11.30;;
2434;SDS011;1228;51.022;6.764;2023-02-13T06:18:25;16.73;;;11.27;;
2434;SDS011;1228;51.022;6.764;2023-02-13T06:20:50;16.60;;;13.63;;
2434;SDS011;1228;51.022;6.764;2023-02-13T06:23:16;15.53;;;12.47;;
2434;SDS011;1228;51.022;6.764;2023-02-13T06:25:42;15.80;;;12.13;;
2434;SDS011;1228;51.022;6.764;2023-02-13T06:28:07;12.90;;;11.80;;
2434;SDS011;1228;51.022;6.764;2023-02-13T06:30:33;17.03;;;13.50;;
2434;SDS011;1228;51.022;6.764;2023-02-13T06:32:59;13.77;;;12.53;;
2434;SDS011;1228;51.022;6.764;2023-02-13T06:35:25;14.77;;;11.07;;
2434;SDS011;1228;51.022;6.764;2023-02-13T06:37:51;14.60;;;12.00;;
2434;SDS011;1228;51.022;6.764;2023-02-13T06:40:16;14.57;;;11.93;;
2434;SDS011;1228;51.022;6.764;2023-02-13T06:42:42;13.17;;;11.07;;
2434;SDS011;1228;51.022;6.764;2023-02-13T06:45:09;13.53;;;11.20;;
2434;SDS011;1228;51.022;6.764;2023-02-13T06:47:35;13.30;;;11.97;;
2434;SDS011;1228;51.022;6.764;2023-02-13T06:50:04;12.63;;;11.30;;
2434;SDS011;1228;51.022;6.764;2023-02-13T06:52:30;12.93;;;10.57;;
2434;SDS011;1228;51.022;6.764;2023-02-13T06:54:56;12.97;;;11.00;;
2434;SDS011;1228;51.022;6.764;2023-02-13T06:57:21;14.37;;;11.30;;
2434;SDS011;1228;51.022;6.764;2023-02-13T06:59:47;15.37;;;10.33;;
2434;SDS011;1228;51.022;6.764;2023-02-13T07:02:13;14.80;;;11.93;;
2434;SDS011;1228;51.022;6.764;2023-02-13T07:04:38;12.33;;;11.13;;
2434;SDS011;1228;51.022;6.764;2023-02-13T07:07:04;15.80;;;11.47;;
2434;SDS011;1228;51.022;6.764;2023-02-13T07:09:30;13.33;;;11.13;;
2434;SDS011;1228;51.022;6.764;2023-02-13T07:11:56;12.70;;;11.33;;
2434;SDS011;1228;51.022;6.764;2023-02-13T07:14:22;14.43;;;11.37;;
2434;SDS011;1228;51.022;6.764;2023-02-13T07:16:48;12.07;;;10.63;;
2434;SDS011;1228;51.022;6.764;2023-02-13T07:19:13;15.67;;;11.60;;
2434;SDS011;1228;51.022;6.764;2023-02-13T07:21:39;14.70;;;12.60;;
2434;SDS011;1228;51.022;6.764;2023-02-13T07:24:05;12.20;;;10.40;;
2434;SDS011;1228;51.022;6.764;2023-02-13T07:26:31;17.33;;;12.63;;
2434;SDS011;1228;51.022;6.764;2023-02-13T07:28:56;13.83;;;10.90;;
2434;SDS011;1228;51.022;6.764;2023-02-13T07:31:22;12.93;;;11.43;;
2434;SDS011;1228;51.022;6.764;2023-02-13T07:33:48;16.50;;;12.27;;
2434;SDS011;1228;51.022;6.764;2023-02-13T07:36:13;18.23;;;12.27;;
2434;SDS011;1228;51.022;6.764;2023-02-13T07:38:39;17.13;;;11.03;;
2434;SDS011;1228;51.022;6.764;2023-02-13T07:41:05;16.67;;;12.63;;
2434;SDS011;1228;51.022;6.764;2023-02-13T07:43:31;16.63;;;12.50;;
2434;SDS011;1228;51.022;6.764;2023-02-13T07:45:57;14.13;;;11.80;;
2434;SDS011;1228;51.022;6.764;2023-02-13T07:48:24;15.40;;;11.80;;
2434;SDS011;1228;51.022;6.764;2023-02-13T07:50:51;12.90;;;11.60;;
2434;SDS011;1228;51.022;6.764;2023-02-13T07:53:17;17.40;;;12.57;;
2434;SDS011;1228;51.022;6.764;2023-02-13T07:55:43;16.87;;;13.10;;
2434;SDS011;1228;51.022;6.764;2023-02-13T07:58:09;21.50;;;11.97;;
2434;SDS011;1228;51.022;6.764;2023-02-13T08:00:34;16.47;;;11.50;;
2434;SDS011;1228;51.022;6.764;2023-02-13T08:03:00;14.10;;;12.63;;
2434;SDS011;1228;51.022;6.764;2023-02-13T08:05:26;18.07;;;11.30;;
2434;SDS011;1228;51.022;6.764;2023-02-13T08:07:53;13.43;;;11.30;;
2434;SDS011;1228;51.022;6.764;2023-02-13T08:10:19;13.43;;;12.03;;
2434;SDS011;1228;51.022;6.764;2023-02-13T08:13:03;14.17;;;10.57;;
2434;SDS011;1228;51.022;6.764;2023-02-13T08:15:30;10.43;;;9.43;;
2434;SDS011;1228;51.022;6.764;2023-02-13T08:17:56;11.73;;;10.60;;
2434;SDS011;1228;51.022;6.764;2023-02-13T08:20:21;9.80;;;9.00;;
2434;SDS011;1228;51.022;6.764;2023-02-13T08:22:48;10.97;;;8.77;;
2434;SDS011;1228;51.022;6.764;2023-02-13T08:25:14;10.60;;;9.50;;
2434;SDS011;1228;51.022;6.764;2023-02-13T08:27:40;12.07;;;9.33;;
2434;SDS011;1228;51.022;6.764;2023-02-13T08:30:06;10.53;;;9.10;;
2434;SDS011;1228;51.022;6.764;2023-02-13T08:32:32;10.13;;;9.10;;
2434;SDS011;1228;51.022;6.764;2023-02-13T08:34:57;9.67;;;8.53;;
2434;SDS011;1228;51.022;6.764;2023-02-13T08:37:23;9.57;;;8.67;;
2434;SDS011;1228;51.022;6.764;2023-02-13T08:39:49;8.77;;;7.93;;
2434;SDS011;1228;51.022;6.764;2023-02-13T08:42:14;7.80;;;7.07;;
2434;SDS011;1228;51.022;6.764;2023-02-13T08:44:40;8.27;;;7.47;;
2434;SDS011;1228;51.022;6.764;2023-02-13T08:47:06;8.00;;;7.20;;
2434;SDS011;1228;51.022;6.764;2023-02-13T08:49:33;8.47;;;7.70;;
2434;SDS011;1228;51.022;6.764;2023-02-13T08:51:59;8.53;;;7.77;;
2434;SDS011;1228;51.022;6.764;2023-02-13T08:54:25;8.30;;;7.50;;
2434;SDS011;1228;51.022;6.764;2023-02-13T08:56:52;8.83;;;7.93;;
2434;SDS011;1228;51.022;6.764;2023-02-13T08:59:18;8.30;;;7.30;;
2434;SDS011;1228;51.022;6.764;2023-02-13T09:01:43;7.63;;;6.90;;
2434;SDS011;1228;51.022;6.764;2023-02-13T09:04:09;8.10;;;7.30;;
2434;SDS011;1228;51.022;6.764;2023-02-13T09:06:35;7.70;;;7.00;;
2434;SDS011;1228;51.022;6.764;2023-02-13T09:09:01;9.27;;;8.30;;
2434;SDS011;1228;51.022;6.764;2023-02-13T09:11:28;8.60;;;7.73;;
2434;SDS011;1228;51.022;6.764;2023-02-13T09:13:54;7.80;;;7.10;;
2434;SDS011;1228;51.022;6.764;2023-02-13T09:16:20;8.87;;;8.07;;
2434;SDS011;1228;51.022;6.764;2023-02-13T09:18:46;11.13;;;7.50;;
2434;SDS011;1228;51.022;6.764;2023-02-13T09:21:12;8.50;;;7.60;;
2434;SDS011;1228;51.022;6.764;2023-02-13T09:23:39;9.93;;;7.63;;
2434;SDS011;1228;51.022;6.764;2023-02-13T09:26:06;7.13;;;6.50;;
2434;SDS011;1228;51.022;6.764;2023-02-13T09:28:34;7.73;;;6.73;;
2434;SDS011;1228;51.022;6.764;2023-02-13T09:31:05;8.43;;;7.63;;
2434;SDS011;1228;51.022;6.764;2023-02-13T09:33:42;13.60;;;8.27;;
2434;SDS011;1228;51.022;6.764;2023-02-13T09:36:10;8.47;;;7.60;;
2434;SDS011;1228;51.022;6.764;2023-02-13T09:38:38;8.70;;;7.33;;
2434;SDS011;1228;51.022;6.764;2023-02-13T09:43:43;7.80;;;7.10;;
2434;SDS011;1228;51.022;6.764;2023-02-13T09:46:11;8.10;;;7.30;;
2434;SDS011;1228;51.022;6.764;2023-02-13T09:48:41;8.50;;;7.27;;
2434;SDS011;1228;51.022;6.764;2023-02-13T09:51:10;8.30;;;6.27;;
2434;SDS011;1228;51.022;6.764;2023-02-13T09:53:41;9.37;;;7.47;;
2434;SDS011;1228;51.022;6.764;2023-02-13T09:56:21;10.07;;;7.80;;
2434;SDS011;1228;51.022;6.764;2023-02-13T10:01:44;7.53;;;6.87;;
2434;SDS011;1228;51.022;6.764;2023-02-13T10:07:00;6.97;;;6.37;;
2434;SDS011;1228;51.022;6.764;2023-02-13T10:09:41;8.30;;;7.30;;
2434;SDS011;1228;51.022;6.764;2023-02-13T10:12:25;8.50;;;6.47;;
2434;SDS011;1228;51.022;6.764;2023-02-13T10:20:41;7.00;;;6.27;;
2434;SDS011;1228;51.022;6.764;2023-02-13T10:25:51;7.20;;;6.47;;
2434;SDS011;1228;51.022;6.764;2023-02-13T10:28:45;9.23;;;6.93;;
2434;SDS011;1228;51.022;6.764;2023-02-13T10:31:17;6.87;;;6.27;;
2434;SDS011;1228;51.022;6.764;2023-02-13T10:33:50;7.03;;;6.43;;
2434;SDS011;1228;51.022;6.764;2023-02-13T10:38:51;7.00;;;6.27;;
2434;SDS011;1228;51.022;6.764;2023-02-13T10:46:45;8.57;;;7.47;;
2434;SDS011;1228;51.022;6.764;2023-02-13T10:52:19;7.80;;;7.10;;
2434;SDS011;1228;51.022;6.764;2023-02-13T10:55:01;7.67;;;6.50;;
2434;SDS011;1228;51.022;6.764;2023-02-13T11:00:21;7.30;;;6.60;;
2434;SDS011;1228;51.022;6.764;2023-02-13T11:02:56;8.47;;;7.23;;
2434;SDS011;1228;51.022;6.764;2023-02-13T11:05:25;10.27;;;7.07;;
2434;SDS011;1228;51.022;6.764;2023-02-13T11:08:01;7.97;;;6.63;;
2434;SDS011;1228;51.022;6.764;2023-02-13T11:10:27;7.37;;;6.37;;
2434;SDS011;1228;51.022;6.764;2023-02-13T11:12:53;8.80;;;6.67;;
2434;SDS011;1228;51.022;6.764;2023-02-13T11:15:25;8.50;;;7.20;;
2434;SDS011;1228;51.022;6.764;2023-02-13T11:17:56;7.23;;;6.53;;
2434;SDS011;1228;51.022;6.764;2023-02-13T11:20:36;6.60;;;6.00;;
2434;SDS011;1228;51.022;6.764;2023-02-13T11:26:03;7.07;;;6.50;;
2434;SDS011;1228;51.022;6.764;2023-02-13T11:28:32;7.03;;;6.43;;
2434;SDS011;1228;51.022;6.764;2023-02-13T11:31:09;6.87;;;6.27;;
2434;SDS011;1228;51.022;6.764;2023-02-13T11:33:37;6.93;;;6.20;;
2434;SDS011;1228;51.022;6.764;2023-02-13T11:36:05;6.43;;;5.73;;
2434;SDS011;1228;51.022;6.764;2023-02-13T11:38:37;6.97;;;5.43;;
2434;SDS011;1228;51.022;6.764;2023-02-13T11:43:47;6.67;;;5.93;;
2434;SDS011;1228;51.022;6.764;2023-02-13T11:46:21;6.50;;;5.90;;
2434;SDS011;1228;51.022;6.764;2023-02-13T11:48:55;6.17;;;5.67;;
2434;SDS011;1228;51.022;6.764;2023-02-13T11:51:30;7.90;;;6.10;;
2434;SDS011;1228;51.022;6.764;2023-02-13T11:53:59;6.67;;;5.70;;
2434;SDS011;1228;51.022;6.764;2023-02-13T11:56:25;7.63;;;6.37;;
2434;SDS011;1228;51.022;6.764;2023-02-13T11:58:59;6.10;;;5.53;;
2434;SDS011;1228;51.022;6.764;2023-02-13T12:01:26;6.43;;;5.87;;
2434;SDS011;1228;51.022;6.764;2023-02-13T12:04:04;6.73;;;6.10;;
2434;SDS011;1228;51.022;6.764;2023-02-13T12:06:30;5.97;;;5.43;;
2434;SDS011;1228;51.022;6.764;2023-02-13T12:09:03;6.05;;;5.53;;
2434;SDS011;1228;51.022;6.764;2023-02-13T12:11:44;5.55;;;5.15;;
2434;SDS011;1228;51.022;6.764;2023-02-13T12:14:15;6.13;;;5.53;;
2434;SDS011;1228;51.022;6.764;2023-02-13T12:16:49;6.50;;;5.85;;
2434;SDS011;1228;51.022;6.764;2023-02-13T12:19:29;7.07;;;5.90;;
2434;SDS011;1228;51.022;6.764;2023-02-13T12:22:14;5.93;;;5.33;;
2434;SDS011;1228;51.022;6.764;2023-02-13T12:27:48;5.30;;;4.80;;
2434;SDS011;1228;51.022;6.764;2023-02-13T12:30:43;5.37;;;4.90;;
2434;SDS011;1228;51.022;6.764;2023-02-13T12:33:39;6.67;;;4.90;;
2434;SDS011;1228;51.022;6.764;2023-02-13T12:36:18;5.03;;;4.57;;
2434;SDS011;1228;51.022;6.764;2023-02-13T12:41:33;7.78;;;4.55;;
2434;SDS011;1228;51.022;6.764;2023-02-13T12:47:10;5.18;;;4.68;;
2434;SDS011;1228;51.022;6.764;2023-02-13T12:49:52;6.00;;;4.90;;
2434;SDS011;1228;51.022;6.764;2023-02-13T12:52:51;7.32;;;5.18;;
2434;SDS011;1228;51.022;6.764;2023-02-13T12:55:46;5.30;;;4.80;;
2434;SDS011;1228;51.022;6.764;2023-02-13T13:01:40;5.37;;;4.23;;
2434;SDS011;1228;51.022;6.764;2023-02-13T13:04:17;5.60;;;5.03;;
2434;SDS011;1228;51.022;6.764;2023-02-13T13:15:24;5.15;;;4.70;;
2434;SDS011;1228;51.022;6.764;2023-02-13T13:22:49;4.75;;;4.40;;
2434;SDS011;1228;51.022;6.764;2023-02-13T13:25:46;5.50;;;5.03;;
2434;SDS011;1228;51.022;6.764;2023-02-13T13:28:37;6.22;;;5.68;;
2434;SDS011;1228;51.022;6.764;2023-02-13T13:31:05;5.45;;;5.05;;
2434;SDS011;1228;51.022;6.764;2023-02-13T13:33:32;5.35;;;4.90;;
2434;SDS011;1228;51.022;6.764;2023-02-13T13:36:02;5.32;;;4.93;;
2434;SDS011;1228;51.022;6.764;2023-02-13T13:41:22;4.88;;;4.57;;
2434;SDS011;1228;51.022;6.764;2023-02-13T13:49:47;4.60;;;4.30;;
2434;SDS011;1228;51.022;6.764;2023-02-13T13:54:51;5.03;;;4.53;;
2434;SDS011;1228;51.022;6.764;2023-02-13T13:57:19;4.18;;;3.90;;
2434;SDS011;1228;51.022;6.764;2023-02-13T14:07:42;4.15;;;3.85;;
2434;SDS011;1228;51.022;6.764;2023-02-13T14:23:46;4.37;;;4.10;;
2434;SDS011;1228;51.022;6.764;2023-02-13T14:31:28;8.98;;;4.15;;
2434;SDS011;1228;51.022;6.764;2023-02-13T14:34:06;4.20;;;3.90;;
2434;SDS011;1228;51.022;6.764;2023-02-13T14:36:47;4.22;;;3.92;;
2434;SDS011;1228;51.022;6.764;2023-02-13T14:40:26;4.03;;;3.72;;
2434;SDS011;1228;51.022;6.764;2023-02-13T14:42:43;3.67;;;3.43;;
2434;SDS011;1228;51.022;6.764;2023-02-13T14:45:13;3.80;;;3.57;;
2434;SDS011;1228;51.022;6.764;2023-02-13T14:47:46;3.60;;;3.40;;
2434;SDS011;1228;51.022;6.764;2023-02-13T14:50:27;4.73;;;4.43;;
2434;SDS011;1228;51.022;6.764;2023-02-13T14:52:56;4.50;;;4.27;;
2434;SDS011;1228;51.022;6.764;2023-02-13T14:57:57;4.77;;;4.47;;
2434;SDS011;1228;51.022;6.764;2023-02-13T15:02:57;3.70;;;3.50;;
2434;SDS011;1228;51.022;6.764;2023-02-13T15:05:30;3.97;;;3.73;;
2434;SDS011;1228;51.022;6.764;2023-02-13T15:08:19;3.90;;;3.70;;
2434;SDS011;1228;51.022;6.764;2023-02-13T15:10:46;4.70;;;4.30;;
2434;SDS011;1228;51.022;6.764;2023-02-13T15:13:23;3.80;;;3.50;;
2434;SDS011;1228;51.022;6.764;2023-02-13T15:15:58;4.33;;;3.60;;
2434;SDS011;1228;51.022;6.764;2023-02-13T15:18:28;4.00;;;3.70;;
2434;SDS011;1228;51.022;6.764;2023-02-13T15:20:57;4.00;;;3.80;;
2434;SDS011;1228;51.022;6.764;2023-02-13T15:23:25;3.93;;;3.73;;
2434;SDS011;1228;51.022;6.764;2023-02-13T15:25:57;7.10;;;3.83;;
2434;SDS011;1228;51.022;6.764;2023-02-13T15:28:28;3.60;;;3.50;;
2434;SDS011;1228;51.022;6.764;2023-02-13T15:33:24;4.50;;;4.20;;
2434;SDS011;1228;51.022;6.764;2023-02-13T15:35:55;4.90;;;4.50;;
2434;SDS011;1228;51.022;6.764;2023-02-13T15:38:23;4.40;;;4.10;;
2434;SDS011;1228;51.022;6.764;2023-02-13T15:40:52;4.50;;;4.20;;
2434;SDS011;1228;51.022;6.764;2023-02-13T15:45:58;4.40;;;4.20;;
2434;SDS011;1228;51.022;6.764;2023-02-13T15:48:30;4.43;;;4.13;;
2434;SDS011;1228;51.022;6.764;2023-02-13T15:50:58;4.10;;;3.90;;
2434;SDS011;1228;51.022;6.764;2023-02-13T15:53:24;5.03;;;4.70;;
2434;SDS011;1228;51.022;6.764;2023-02-13T15:56:23;4.90;;;4.60;;
2434;SDS011;1228;51.022;6.764;2023-02-13T15:58:42;4.30;;;4.10;;
2434;SDS011;1228;51.022;6.764;2023-02-13T16:01:08;5.00;;;4.70;;
2434;SDS011;1228;51.022;6.764;2023-02-13T16:03:34;4.30;;;4.10;;
2434;SDS011;1228;51.022;6.764;2023-02-13T16:06:01;5.13;;;4.70;;
2434;SDS011;1228;51.022;6.764;2023-02-13T16:08:30;5.70;;;5.30;;
2434;SDS011;1228;51.022;6.764;2023-02-13T16:16:27;5.33;;;5.03;;
2434;SDS011;1228;51.022;6.764;2023-02-13T16:18:54;4.83;;;4.63;;
2434;SDS011;1228;51.022;6.764;2023-02-13T16:21:21;4.73;;;4.40;;
2434;SDS011;1228;51.022;6.764;2023-02-13T16:23:56;4.40;;;4.20;;
2434;SDS011;1228;51.022;6.764;2023-02-13T16:26:24;4.50;;;4.20;;
2434;SDS011;1228;51.022;6.764;2023-02-13T16:28:50;4.80;;;4.50;;
2434;SDS011;1228;51.022;6.764;2023-02-13T16:31:16;4.80;;;4.50;;
2434;SDS011;1228;51.022;6.764;2023-02-13T16:33:43;5.07;;;4.77;;
2434;SDS011;1228;51.022;6.764;2023-02-13T16:38:44;4.87;;;4.57;;
2434;SDS011;1228;51.022;6.764;2023-02-13T16:46:40;4.87;;;4.57;;
2434;SDS011;1228;51.022;6.764;2023-02-13T16:49:18;4.50;;;4.30;;
2434;SDS011;1228;51.022;6.764;2023-02-13T16:51:50;5.07;;;4.77;;
2434;SDS011;1228;51.022;6.764;2023-02-13T17:02:22;5.10;;;4.80;;
2434;SDS011;1228;51.022;6.764;2023-02-13T17:07:44;5.23;;;4.93;;
2434;SDS011;1228;51.022;6.764;2023-02-13T17:10:17;5.03;;;4.73;;
2434;SDS011;1228;51.022;6.764;2023-02-13T17:12:44;5.60;;;5.10;;
2434;SDS011;1228;51.022;6.764;2023-02-13T17:15:11;5.80;;;5.40;;
2434;SDS011;1228;51.022;6.764;2023-02-13T17:17:39;5.10;;;4.80;;
2434;SDS011;1228;51.022;6.764;2023-02-13T17:20:05;8.77;;;5.73;;
2434;SDS011;1228;51.022;6.764;2023-02-13T17:22:34;5.53;;;5.23;;
2434;SDS011;1228;51.022;6.764;2023-02-13T17:25:00;5.43;;;5.13;;
2434;SDS011;1228;51.022;6.764;2023-02-13T17:27:28;5.30;;;5.00;;
2434;SDS011;1228;51.022;6.764;2023-02-13T17:29:53;5.43;;;5.10;;
2434;SDS011;1228;51.022;6.764;2023-02-13T17:32:20;5.43;;;5.03;;
2434;SDS011;1228;51.022;6.764;2023-02-13T17:34:48;5.80;;;5.40;;
2434;SDS011;1228;51.022;6.764;2023-02-13T17:37:15;6.00;;;5.50;;
2434;SDS011;1228;51.022;6.764;2023-02-13T17:39:43;6.10;;;5.80;;
2434;SDS011;1228;51.022;6.764;2023-02-13T17:42:12;5.20;;;5.00;;
2434;SDS011;1228;51.022;6.764;2023-02-13T17:44:44;6.23;;;5.93;;
2434;SDS011;1228;51.022;6.764;2023-02-13T17:47:10;5.40;;;5.10;;
2434;SDS011;1228;51.022;6.764;2023-02-13T17:49:36;6.43;;;6.00;;
2434;SDS011;1228;51.022;6.764;2023-02-13T17:52:01;6.30;;;5.80;;
2434;SDS011;1228;51.022;6.764;2023-02-13T17:54:27;5.97;;;5.57;;
2434;SDS011;1228;51.022;6.764;2023-02-13T17:56:53;6.43;;;5.93;;
2434;SDS011;1228;51.022;6.764;2023-02-13T17:59:19;5.70;;;5.40;;
2434;SDS011;1228;51.022;6.764;2023-02-13T18:01:44;6.27;;;5.83;;
2434;SDS011;1228;51.022;6.764;2023-02-13T18:04:10;6.47;;;6.07;;
2434;SDS011;1228;51.022;6.764;2023-02-13T18:06:35;6.90;;;6.30;;
2434;SDS011;1228;51.022;6.764;2023-02-13T18:09:01;6.83;;;6.33;;
2434;SDS011;1228;51.022;6.764;2023-02-13T18:11:26;6.30;;;5.90;;
2434;SDS011;1228;51.022;6.764;2023-02-13T18:13:52;6.40;;;6.00;;
2434;SDS011;1228;51.022;6.764;2023-02-13T18:16:18;6.60;;;6.10;;
2434;SDS011;1228;51.022;6.764;2023-02-13T18:18:46;6.60;;;6.07;;
2434;SDS011;1228;51.022;6.764;2023-02-13T18:21:11;6.60;;;6.10;;
2434;SDS011;1228;51.022;6.764;2023-02-13T18:23:37;6.97;;;6.37;;